Fair Grove, Missouri
Current Conditions -  °F | °C
As of 5:52 AM on Tuesday 27 Jan 2015 (Local Time) from KSGF Reporting Station
Clear Clear  
Wind Chill:   Ceiling: Unl
Heat Index:   Visibility: 10mi
Dew Point: -1°   Wind: 6mph
Humidity: 79%   Direction: 320°NW
Pressure: 30.07"   Gusts: NA
Location:  37.38°N, 93.15°W
Report Text: KSGF 271152Z 32005KT 10SM CLR 03/M01 A3007 RMK AO2 SLP186 T00281006 10078 20011 53012
Loading
Personal Weather Stations






























Interactive Weather Map New forecast layout! Learn more

10-Day Weather Forecast

Advertisements
Track Severe Weather on mobile